Historique des mesures à Cassis (13260), France
Quotidien Résumé Juillet 24, 2017 Unités:  Métrique    US   Métrique/US
« Précédent (Jour)
Suivant (Jour) »
Quotidien Hebdomadaire Mensuel Annuel Période au choix
  Maximum: Minimum: Moyenne:
Température: TemperatureC °C 22.9 °C 24.2 °C
Point de rosée: DewpointC °C 10.0 °C 13.6 °C
Humidité: Humidity % 39 % 49 %
Vitesse du vent: 0 km/h 5.1 km/h 29.3 km/h
Rafales: 0 km/h - -
Vent:- - South
Pression: PressurehPa hPa 1004.3 hPa -
Précipitations: 0.0 mm    
Historical Graphs
 
 
Mesures pour : Juillet 24, 2017
Heure Temperature Point de rosée Pression Vent Vitesse du vent Rafales Humidité Pluie (par heure) Conditions
TemperatureC °C DewpointC °C PressurehPa hPa Calm     Humidity % HourlyPrecipMM mm SoftwareType W/m2
00:11 24.2 °C 17.2 °C 1009.4 hPa NNW 30.7 km/h 36.5 km/h 65 % 0.0 mm open2300-1.11 W/m2
01:11 24.4 °C 16.2 °C 1008.7 hPa NW 17.9 km/h 17.9 km/h 60 % 0.0 mm open2300-1.11 W/m2
02:11 24.4 °C 15.3 °C 1008.4 hPa NE 5.1 km/h 8 km/h 57 % 0.0 mm open2300-1.11 W/m2
03:11 23.9 °C 14.9 °C 1007.7 hPa NNW 8 km/h 25.4 km/h 57 % 0.0 mm open2300-1.11 W/m2
04:11 23.3 °C 14.6 °C 1006.7 hPa NNW 23 km/h 23 km/h 58 % 0.0 mm open2300-1.11 W/m2
05:11 23.1 °C 13.2 °C 1006.7 hPa NNW 23 km/h 33.2 km/h 54 % 0.0 mm open2300-1.11 W/m2
06:11 22.9 °C 13.1 °C 1006.7 hPa North 40.7 km/h 40.7 km/h 54 % 0.0 mm open2300-1.11 W/m2
08:11 23.5 °C 13.6 °C 1006.7 hPa North 23.8 km/h 23.8 km/h 54 % 0.0 mm open2300-1.11 W/m2
09:11 23.8 °C 13.9 °C 1007.0 hPa North 27.7 km/h 30.7 km/h 54 % 0.0 mm open2300-1.11 W/m2
10:11 24.4 °C 14.5 °C 1006.7 hPa North 14 km/h 26.7 km/h 54 % 0.0 mm open2300-1.11 W/m2
11:11 26.5 °C 15.3 °C 1006.7 hPa North 27.2 km/h 41.2 km/h 50 % 0.0 mm open2300-1.11 W/m2
12:11 27.1 °C 15.1 °C 1006.3 hPa WNW 50.5 km/h 50.5 km/h 48 % 0.0 mm open2300-1.11 W/m2
13:11 26.3 °C 16.5 °C 1006.3 hPa West 54.4 km/h 54.4 km/h 55 % 0.0 mm open2300-1.11 W/m2
14:11 27.1 °C 16.4 °C 1006.0 hPa NNW 26.7 km/h 33.6 km/h 52 % 0.0 mm open2300-1.11 W/m2
15:11 27.1 °C 16.7 °C 1005.3 hPa NW 75.8 km/h 80.5 km/h 53 % 0.0 mm open2300-1.11 W/m2
16:11 27.9 °C 16.8 °C 1005.0 hPa NW 45.4 km/h 60.3 km/h 51 % 0.0 mm open2300-1.11 W/m2
17:11 28.4 °C 14.6 °C 1004.3 hPa NNE 23 km/h 51.5 km/h 43 % 0.0 mm open2300-1.11 W/m2
18:11 27.9 °C 14.4 °C 1004.6 hPa NW 51 km/h 51 km/h 44 % 0.0 mm open2300-1.11 W/m2
19:11 26.6 °C 12.9 °C 1004.6 hPa NNW 27.7 km/h 34.1 km/h 43 % 0.0 mm open2300-1.11 W/m2
20:11 26.3 °C 12.0 °C 1005.0 hPa NNE 11.6 km/h 53.3 km/h 41 % 0.0 mm open2300-1.11 W/m2
21:11 24.9 °C 10.0 °C 1005.6 hPa NNE 25.4 km/h 29.5 km/h 39 % 0.0 mm open2300-1.11 W/m2
22:11 23.9 °C 10.2 °C 1006.3 hPa NW 42.2 km/h 88.5 km/h 42 % 0.0 mm open2300-1.11 W/m2
23:11 23.0 °C 10.0 °C 1007.0 hPa NNE 26.7 km/h 39.9 km/h 44 % 0.0 mm open2300-1.11 W/m2
Observations météo à CASSIS
WU-History script by Weather Underground - 1 mb